sensor_id;sensor_type;location;lat;lon;timestamp;temperature;humidity
72814;DHT22;60945;48.516;-2.768;2023-02-20T00:00:48;7.40;74.20
72814;DHT22;60945;48.516;-2.768;2023-02-20T00:03:15;7.20;74.70
72814;DHT22;60945;48.516;-2.768;2023-02-20T00:05:41;7.20;74.90
72814;DHT22;60945;48.516;-2.768;2023-02-20T00:08:06;7.40;73.90
72814;DHT22;60945;48.516;-2.768;2023-02-20T00:10:33;7.20;73.90
72814;DHT22;60945;48.516;-2.768;2023-02-20T00:13:02;7.10;74.60
72814;DHT22;60945;48.516;-2.768;2023-02-20T00:15:28;7.20;74.10
72814;DHT22;60945;48.516;-2.768;2023-02-20T00:17:53;7.20;74.40
72814;DHT22;60945;48.516;-2.768;2023-02-20T00:20:22;7.20;75.00
72814;DHT22;60945;48.516;-2.768;2023-02-20T00:22:49;7.20;74.80
72814;DHT22;60945;48.516;-2.768;2023-02-20T00:25:16;7.20;75.30
72814;DHT22;60945;48.516;-2.768;2023-02-20T00:27:43;7.10;74.80
72814;DHT22;60945;48.516;-2.768;2023-02-20T00:30:19;7.10;75.20
72814;DHT22;60945;48.516;-2.768;2023-02-20T00:32:46;7.10;75.20
72814;DHT22;60945;48.516;-2.768;2023-02-20T00:35:13;7.20;74.20
72814;DHT22;60945;48.516;-2.768;2023-02-20T00:37:39;7.00;75.00
72814;DHT22;60945;48.516;-2.768;2023-02-20T00:40:05;7.10;75.20
72814;DHT22;60945;48.516;-2.768;2023-02-20T00:42:31;7.00;73.80
72814;DHT22;60945;48.516;-2.768;2023-02-20T00:44:57;7.00;73.90
72814;DHT22;60945;48.516;-2.768;2023-02-20T00:47:22;6.80;74.30
72814;DHT22;60945;48.516;-2.768;2023-02-20T00:49:48;6.90;74.70
72814;DHT22;60945;48.516;-2.768;2023-02-20T00:52:14;6.90;75.10
72814;DHT22;60945;48.516;-2.768;2023-02-20T00:54:39;6.80;75.00
72814;DHT22;60945;48.516;-2.768;2023-02-20T00:57:05;7.00;74.50
72814;DHT22;60945;48.516;-2.768;2023-02-20T00:59:30;7.00;74.20
72814;DHT22;60945;48.516;-2.768;2023-02-20T01:01:56;6.90;74.40
72814;DHT22;60945;48.516;-2.768;2023-02-20T01:04:22;6.90;74.50
72814;DHT22;60945;48.516;-2.768;2023-02-20T01:06:47;6.80;74.80
72814;DHT22;60945;48.516;-2.768;2023-02-20T01:09:13;6.80;74.40
72814;DHT22;60945;48.516;-2.768;2023-02-20T01:11:45;6.90;74.50
72814;DHT22;60945;48.516;-2.768;2023-02-20T01:14:12;7.00;73.70
72814;DHT22;60945;48.516;-2.768;2023-02-20T01:16:49;6.90;73.50
72814;DHT22;60945;48.516;-2.768;2023-02-20T01:19:16;7.00;73.60
72814;DHT22;60945;48.516;-2.768;2023-02-20T01:21:42;6.80;73.70
72814;DHT22;60945;48.516;-2.768;2023-02-20T01:24:08;6.70;74.40
72814;DHT22;60945;48.516;-2.768;2023-02-20T01:26:33;6.90;74.20
72814;DHT22;60945;48.516;-2.768;2023-02-20T01:29:01;6.60;76.30
72814;DHT22;60945;48.516;-2.768;2023-02-20T01:31:27;6.60;75.40
72814;DHT22;60945;48.516;-2.768;2023-02-20T01:33:53;6.50;75.90
72814;DHT22;60945;48.516;-2.768;2023-02-20T01:36:19;6.70;75.40
72814;DHT22;60945;48.516;-2.768;2023-02-20T01:38:45;6.50;75.60
72814;DHT22;60945;48.516;-2.768;2023-02-20T01:41:14;6.30;76.10
72814;DHT22;60945;48.516;-2.768;2023-02-20T01:43:40;6.40;76.40
72814;DHT22;60945;48.516;-2.768;2023-02-20T01:49:04;6.80;75.40
72814;DHT22;60945;48.516;-2.768;2023-02-20T01:51:33;6.80;75.50
72814;DHT22;60945;48.516;-2.768;2023-02-20T01:53:59;6.80;74.70
72814;DHT22;60945;48.516;-2.768;2023-02-20T01:56:26;6.90;75.00
72814;DHT22;60945;48.516;-2.768;2023-02-20T01:58:52;6.90;74.60
72814;DHT22;60945;48.516;-2.768;2023-02-20T02:01:19;6.90;73.40
72814;DHT22;60945;48.516;-2.768;2023-02-20T02:03:46;6.60;74.20
72814;DHT22;60945;48.516;-2.768;2023-02-20T02:06:14;6.70;74.70
72814;DHT22;60945;48.516;-2.768;2023-02-20T02:08:42;6.90;74.10
72814;DHT22;60945;48.516;-2.768;2023-02-20T02:11:20;6.90;75.80
72814;DHT22;60945;48.516;-2.768;2023-02-20T02:13:47;6.80;76.10
72814;DHT22;60945;48.516;-2.768;2023-02-20T02:24:59;6.30;80.80
72814;DHT22;60945;48.516;-2.768;2023-02-20T02:40:54;6.10;76.30
72814;DHT22;60945;48.516;-2.768;2023-02-20T02:46:13;6.00;76.60
72814;DHT22;60945;48.516;-2.768;2023-02-20T02:48:56;6.00;76.10
72814;DHT22;60945;48.516;-2.768;2023-02-20T02:51:28;6.20;75.70
72814;DHT22;60945;48.516;-2.768;2023-02-20T02:54:14;6.40;74.30
72814;DHT22;60945;48.516;-2.768;2023-02-20T02:56:45;6.40;73.80
72814;DHT22;60945;48.516;-2.768;2023-02-20T02:59:24;6.40;74.00
72814;DHT22;60945;48.516;-2.768;2023-02-20T03:01:59;6.50;73.20
72814;DHT22;60945;48.516;-2.768;2023-02-20T03:04:27;6.60;72.80
72814;DHT22;60945;48.516;-2.768;2023-02-20T03:06:58;6.50;73.00
72814;DHT22;60945;48.516;-2.768;2023-02-20T03:09:28;6.30;73.70
72814;DHT22;60945;48.516;-2.768;2023-02-20T03:11:56;6.70;73.00
72814;DHT22;60945;48.516;-2.768;2023-02-20T03:14:49;6.90;71.90
72814;DHT22;60945;48.516;-2.768;2023-02-20T03:17:39;6.80;71.80
72814;DHT22;60945;48.516;-2.768;2023-02-20T03:20:16;6.70;72.10
72814;DHT22;60945;48.516;-2.768;2023-02-20T03:22:46;6.60;73.00
72814;DHT22;60945;48.516;-2.768;2023-02-20T03:25:21;6.70;71.90
72814;DHT22;60945;48.516;-2.768;2023-02-20T03:27:58;6.30;74.10
72814;DHT22;60945;48.516;-2.768;2023-02-20T03:30:40;6.70;73.80
72814;DHT22;60945;48.516;-2.768;2023-02-20T03:33:20;6.70;73.10
72814;DHT22;60945;48.516;-2.768;2023-02-20T03:36:09;6.40;74.60
72814;DHT22;60945;48.516;-2.768;2023-02-20T03:39:02;6.50;76.00
72814;DHT22;60945;48.516;-2.768;2023-02-20T03:41:48;6.80;75.40
72814;DHT22;60945;48.516;-2.768;2023-02-20T03:44:33;6.70;76.30
72814;DHT22;60945;48.516;-2.768;2023-02-20T03:47:01;6.50;75.90
72814;DHT22;60945;48.516;-2.768;2023-02-20T03:49:33;6.30;75.90
72814;DHT22;60945;48.516;-2.768;2023-02-20T03:51:59;6.40;76.10
72814;DHT22;60945;48.516;-2.768;2023-02-20T03:54:26;6.40;75.80
72814;DHT22;60945;48.516;-2.768;2023-02-20T03:56:56;6.20;75.90
72814;DHT22;60945;48.516;-2.768;2023-02-20T04:02:23;5.90;76.20
72814;DHT22;60945;48.516;-2.768;2023-02-20T04:04:52;5.80;76.50
72814;DHT22;60945;48.516;-2.768;2023-02-20T04:07:38;5.90;76.10
72814;DHT22;60945;48.516;-2.768;2023-02-20T04:10:10;5.80;75.50
72814;DHT22;60945;48.516;-2.768;2023-02-20T04:12:39;5.90;76.30
72814;DHT22;60945;48.516;-2.768;2023-02-20T04:15:08;5.90;75.40
72814;DHT22;60945;48.516;-2.768;2023-02-20T04:18:14;5.90;75.10
72814;DHT22;60945;48.516;-2.768;2023-02-20T04:20:39;5.80;75.90
72814;DHT22;60945;48.516;-2.768;2023-02-20T04:23:16;5.80;75.60
72814;DHT22;60945;48.516;-2.768;2023-02-20T04:25:49;5.70;75.80
72814;DHT22;60945;48.516;-2.768;2023-02-20T04:28:17;5.70;76.40
72814;DHT22;60945;48.516;-2.768;2023-02-20T04:30:43;5.80;75.70
72814;DHT22;60945;48.516;-2.768;2023-02-20T04:33:13;5.80;75.40
72814;DHT22;60945;48.516;-2.768;2023-02-20T04:35:39;5.80;75.40
72814;DHT22;60945;48.516;-2.768;2023-02-20T04:38:05;5.90;74.20
72814;DHT22;60945;48.516;-2.768;2023-02-20T04:40:31;5.80;74.50
72814;DHT22;60945;48.516;-2.768;2023-02-20T04:42:57;5.80;74.10
72814;DHT22;60945;48.516;-2.768;2023-02-20T04:45:23;5.60;74.40
72814;DHT22;60945;48.516;-2.768;2023-02-20T04:47:49;5.60;74.20
72814;DHT22;60945;48.516;-2.768;2023-02-20T04:50:30;5.50;74.70
72814;DHT22;60945;48.516;-2.768;2023-02-20T04:52:57;5.70;74.40
72814;DHT22;60945;48.516;-2.768;2023-02-20T04:55:23;5.50;74.40
72814;DHT22;60945;48.516;-2.768;2023-02-20T04:57:49;5.50;74.50
72814;DHT22;60945;48.516;-2.768;2023-02-20T05:00:17;5.60;74.20
72814;DHT22;60945;48.516;-2.768;2023-02-20T05:02:46;5.40;74.10
72814;DHT22;60945;48.516;-2.768;2023-02-20T05:07:45;5.40;74.60
72814;DHT22;60945;48.516;-2.768;2023-02-20T05:10:17;5.50;73.80
72814;DHT22;60945;48.516;-2.768;2023-02-20T05:12:43;5.50;73.50
72814;DHT22;60945;48.516;-2.768;2023-02-20T05:15:08;5.50;73.70
72814;DHT22;60945;48.516;-2.768;2023-02-20T05:17:35;5.60;73.10
72814;DHT22;60945;48.516;-2.768;2023-02-20T05:20:01;5.50;72.70
72814;DHT22;60945;48.516;-2.768;2023-02-20T05:22:27;5.10;73.50
72814;DHT22;60945;48.516;-2.768;2023-02-20T05:24:52;5.00;74.70
72814;DHT22;60945;48.516;-2.768;2023-02-20T05:27:20;4.90;74.90
72814;DHT22;60945;48.516;-2.768;2023-02-20T05:29:48;4.90;75.30
72814;DHT22;60945;48.516;-2.768;2023-02-20T05:32:15;5.10;74.70
72814;DHT22;60945;48.516;-2.768;2023-02-20T05:34:42;5.10;73.80
72814;DHT22;60945;48.516;-2.768;2023-02-20T05:37:08;4.90;74.90
72814;DHT22;60945;48.516;-2.768;2023-02-20T05:39:34;4.90;75.30
72814;DHT22;60945;48.516;-2.768;2023-02-20T05:41:59;5.20;74.40
72814;DHT22;60945;48.516;-2.768;2023-02-20T05:44:25;5.30;74.10
72814;DHT22;60945;48.516;-2.768;2023-02-20T05:46:51;5.30;73.40
72814;DHT22;60945;48.516;-2.768;2023-02-20T05:49:18;5.40;73.10
72814;DHT22;60945;48.516;-2.768;2023-02-20T05:51:44;5.40;72.80
72814;DHT22;60945;48.516;-2.768;2023-02-20T05:54:10;5.30;72.90
72814;DHT22;60945;48.516;-2.768;2023-02-20T05:56:43;5.30;72.80
72814;DHT22;60945;48.516;-2.768;2023-02-20T05:59:09;4.90;74.60
72814;DHT22;60945;48.516;-2.768;2023-02-20T06:01:35;5.00;74.00
72814;DHT22;60945;48.516;-2.768;2023-02-20T06:04:00;5.10;73.30
72814;DHT22;60945;48.516;-2.768;2023-02-20T06:06:33;5.10;72.90
72814;DHT22;60945;48.516;-2.768;2023-02-20T06:09:00;5.00;73.40
72814;DHT22;60945;48.516;-2.768;2023-02-20T06:11:26;4.90;73.50
72814;DHT22;60945;48.516;-2.768;2023-02-20T06:13:52;5.00;73.70
72814;DHT22;60945;48.516;-2.768;2023-02-20T06:16:26;4.80;72.60
72814;DHT22;60945;48.516;-2.768;2023-02-20T06:18:52;4.50;74.60
72814;DHT22;60945;48.516;-2.768;2023-02-20T06:21:18;4.60;74.30
72814;DHT22;60945;48.516;-2.768;2023-02-20T06:23:45;4.60;74.10
72814;DHT22;60945;48.516;-2.768;2023-02-20T06:26:11;4.30;74.90
72814;DHT22;60945;48.516;-2.768;2023-02-20T06:28:38;4.70;74.60
72814;DHT22;60945;48.516;-2.768;2023-02-20T06:31:05;4.80;74.00
72814;DHT22;60945;48.516;-2.768;2023-02-20T06:33:32;4.90;73.90
72814;DHT22;60945;48.516;-2.768;2023-02-20T06:35:57;5.00;72.80
72814;DHT22;60945;48.516;-2.768;2023-02-20T06:38:23;4.90;74.00
72814;DHT22;60945;48.516;-2.768;2023-02-20T06:40:49;4.90;74.80
72814;DHT22;60945;48.516;-2.768;2023-02-20T06:43:15;5.20;74.40
72814;DHT22;60945;48.516;-2.768;2023-02-20T06:45:41;5.40;73.90
72814;DHT22;60945;48.516;-2.768;2023-02-20T06:48:06;5.40;73.50
72814;DHT22;60945;48.516;-2.768;2023-02-20T06:50:32;5.50;72.90
72814;DHT22;60945;48.516;-2.768;2023-02-20T06:52:58;5.50;73.60
72814;DHT22;60945;48.516;-2.768;2023-02-20T06:55:24;5.60;73.30
72814;DHT22;60945;48.516;-2.768;2023-02-20T06:57:49;5.70;73.80
72814;DHT22;60945;48.516;-2.768;2023-02-20T07:00:16;5.90;73.20
72814;DHT22;60945;48.516;-2.768;2023-02-20T07:02:42;6.00;73.40
72814;DHT22;60945;48.516;-2.768;2023-02-20T07:05:09;5.90;74.90
72814;DHT22;60945;48.516;-2.768;2023-02-20T07:07:36;5.90;75.00
72814;DHT22;60945;48.516;-2.768;2023-02-20T07:10:02;6.20;74.20
72814;DHT22;60945;48.516;-2.768;2023-02-20T07:12:32;6.40;74.40
72814;DHT22;60945;48.516;-2.768;2023-02-20T07:14:58;6.50;74.50
72814;DHT22;60945;48.516;-2.768;2023-02-20T07:17:24;6.30;74.70
72814;DHT22;60945;48.516;-2.768;2023-02-20T07:19:50;6.30;75.80
72814;DHT22;60945;48.516;-2.768;2023-02-20T07:22:19;6.40;75.90
72814;DHT22;60945;48.516;-2.768;2023-02-20T07:24:52;6.50;76.40
72814;DHT22;60945;48.516;-2.768;2023-02-20T07:27:19;6.40;76.30
72814;DHT22;60945;48.516;-2.768;2023-02-20T07:29:46;6.50;76.70
72814;DHT22;60945;48.516;-2.768;2023-02-20T07:32:13;6.50;77.10
72814;DHT22;60945;48.516;-2.768;2023-02-20T07:34:39;6.50;76.90
72814;DHT22;60945;48.516;-2.768;2023-02-20T07:37:04;6.30;77.30
72814;DHT22;60945;48.516;-2.768;2023-02-20T07:39:30;6.40;77.10
72814;DHT22;60945;48.516;-2.768;2023-02-20T07:41:56;6.60;76.90
72814;DHT22;60945;48.516;-2.768;2023-02-20T07:44:21;6.90;75.50
72814;DHT22;60945;48.516;-2.768;2023-02-20T07:46:47;7.00;75.10
72814;DHT22;60945;48.516;-2.768;2023-02-20T07:49:12;7.00;75.20
72814;DHT22;60945;48.516;-2.768;2023-02-20T07:51:40;6.90;75.90
72814;DHT22;60945;48.516;-2.768;2023-02-20T07:54:06;7.00;74.70
72814;DHT22;60945;48.516;-2.768;2023-02-20T07:56:32;6.80;75.00
72814;DHT22;60945;48.516;-2.768;2023-02-20T07:58:57;6.80;76.70
72814;DHT22;60945;48.516;-2.768;2023-02-20T08:01:23;6.70;76.40
72814;DHT22;60945;48.516;-2.768;2023-02-20T08:03:49;6.70;75.80
72814;DHT22;60945;48.516;-2.768;2023-02-20T08:06:17;6.90;76.10
72814;DHT22;60945;48.516;-2.768;2023-02-20T08:08:46;7.10;75.40
72814;DHT22;60945;48.516;-2.768;2023-02-20T08:11:13;6.90;76.10
72814;DHT22;60945;48.516;-2.768;2023-02-20T08:13:41;7.20;75.20
72814;DHT22;60945;48.516;-2.768;2023-02-20T08:16:07;7.50;73.70
72814;DHT22;60945;48.516;-2.768;2023-02-20T08:18:32;7.60;73.10
72814;DHT22;60945;48.516;-2.768;2023-02-20T08:20:58;7.70;72.70
72814;DHT22;60945;48.516;-2.768;2023-02-20T08:23:24;7.70;73.10
72814;DHT22;60945;48.516;-2.768;2023-02-20T08:25:50;7.90;72.50
72814;DHT22;60945;48.516;-2.768;2023-02-20T08:28:16;8.00;71.80
72814;DHT22;60945;48.516;-2.768;2023-02-20T08:30:42;8.10;72.10
72814;DHT22;60945;48.516;-2.768;2023-02-20T08:33:08;8.10;72.10
72814;DHT22;60945;48.516;-2.768;2023-02-20T08:35:34;7.90;72.20
72814;DHT22;60945;48.516;-2.768;2023-02-20T08:38:04;8.00;73.30
72814;DHT22;60945;48.516;-2.768;2023-02-20T08:40:30;8.20;72.10
72814;DHT22;60945;48.516;-2.768;2023-02-20T08:42:56;8.30;72.20
72814;DHT22;60945;48.516;-2.768;2023-02-20T08:45:22;8.30;72.00
72814;DHT22;60945;48.516;-2.768;2023-02-20T08:47:48;8.50;71.60
72814;DHT22;60945;48.516;-2.768;2023-02-20T08:50:17;8.60;71.10
72814;DHT22;60945;48.516;-2.768;2023-02-20T08:52:44;8.60;70.60
72814;DHT22;60945;48.516;-2.768;2023-02-20T08:55:10;8.70;70.30
72814;DHT22;60945;48.516;-2.768;2023-02-20T08:57:36;8.30;71.80
72814;DHT22;60945;48.516;-2.768;2023-02-20T09:00:04;8.20;72.10
72814;DHT22;60945;48.516;-2.768;2023-02-20T09:02:30;8.40;72.10
72814;DHT22;60945;48.516;-2.768;2023-02-20T09:04:56;8.50;71.70
72814;DHT22;60945;48.516;-2.768;2023-02-20T09:07:23;8.80;71.30
72814;DHT22;60945;48.516;-2.768;2023-02-20T09:09:48;8.90;71.50
72814;DHT22;60945;48.516;-2.768;2023-02-20T09:12:15;8.80;71.90
72814;DHT22;60945;48.516;-2.768;2023-02-20T09:14:40;9.20;71.60
72814;DHT22;60945;48.516;-2.768;2023-02-20T09:17:06;9.30;70.90
72814;DHT22;60945;48.516;-2.768;2023-02-20T09:19:32;9.30;71.00
72814;DHT22;60945;48.516;-2.768;2023-02-20T09:21:58;9.50;70.70
72814;DHT22;60945;48.516;-2.768;2023-02-20T09:24:23;9.10;71.00
72814;DHT22;60945;48.516;-2.768;2023-02-20T09:26:49;8.90;72.30
72814;DHT22;60945;48.516;-2.768;2023-02-20T09:29:15;9.00;72.20
72814;DHT22;60945;48.516;-2.768;2023-02-20T09:31:41;9.40;71.60
72814;DHT22;60945;48.516;-2.768;2023-02-20T09:34:07;9.60;70.60
72814;DHT22;60945;48.516;-2.768;2023-02-20T09:36:33;9.60;70.70
72814;DHT22;60945;48.516;-2.768;2023-02-20T09:38:59;10.00;69.90
72814;DHT22;60945;48.516;-2.768;2023-02-20T09:44:10;9.90;69.40
72814;DHT22;60945;48.516;-2.768;2023-02-20T09:46:38;10.00;69.70
72814;DHT22;60945;48.516;-2.768;2023-02-20T09:51:44;10.10;68.80
72814;DHT22;60945;48.516;-2.768;2023-02-20T09:54:18;10.10;68.20
72814;DHT22;60945;48.516;-2.768;2023-02-20T09:56:53;10.10;68.20
72814;DHT22;60945;48.516;-2.768;2023-02-20T09:59:27;10.60;66.00
72814;DHT22;60945;48.516;-2.768;2023-02-20T10:02:00;10.30;67.40
72814;DHT22;60945;48.516;-2.768;2023-02-20T10:04:29;10.10;67.80
72814;DHT22;60945;48.516;-2.768;2023-02-20T10:07:03;10.20;67.80
72814;DHT22;60945;48.516;-2.768;2023-02-20T10:09:33;9.70;69.70
72814;DHT22;60945;48.516;-2.768;2023-02-20T10:12:40;10.00;69.00
72814;DHT22;60945;48.516;-2.768;2023-02-20T10:23:51;9.90;69.90
72814;DHT22;60945;48.516;-2.768;2023-02-20T10:26:29;10.00;69.90
72814;DHT22;60945;48.516;-2.768;2023-02-20T10:29:08;10.40;69.10
72814;DHT22;60945;48.516;-2.768;2023-02-20T10:31:44;10.20;69.30
72814;DHT22;60945;48.516;-2.768;2023-02-20T10:35:04;9.50;71.30
72814;DHT22;60945;48.516;-2.768;2023-02-20T10:37:37;9.90;70.50
72814;DHT22;60945;48.516;-2.768;2023-02-20T10:42:40;10.40;68.90
72814;DHT22;60945;48.516;-2.768;2023-02-20T10:45:57;10.00;69.70
72814;DHT22;60945;48.516;-2.768;2023-02-20T10:48:05;10.30;70.30
72814;DHT22;60945;48.516;-2.768;2023-02-20T10:53:12;11.00;66.20
72814;DHT22;60945;48.516;-2.768;2023-02-20T11:00:55;11.40;65.00
72814;DHT22;60945;48.516;-2.768;2023-02-20T11:03:33;11.40;65.80
72814;DHT22;60945;48.516;-2.768;2023-02-20T11:06:01;10.80;67.20
72814;DHT22;60945;48.516;-2.768;2023-02-20T11:08:28;10.50;68.50
72814;DHT22;60945;48.516;-2.768;2023-02-20T11:10:59;10.90;67.70
72814;DHT22;60945;48.516;-2.768;2023-02-20T11:13:29;11.20;66.00
72814;DHT22;60945;48.516;-2.768;2023-02-20T11:15:55;11.00;67.20
72814;DHT22;60945;48.516;-2.768;2023-02-20T11:18:37;11.50;65.80
72814;DHT22;60945;48.516;-2.768;2023-02-20T11:21:03;11.80;64.60
72814;DHT22;60945;48.516;-2.768;2023-02-20T11:23:41;11.90;64.10
72814;DHT22;60945;48.516;-2.768;2023-02-20T11:28:44;11.70;65.10
72814;DHT22;60945;48.516;-2.768;2023-02-20T11:31:11;11.90;64.30
72814;DHT22;60945;48.516;-2.768;2023-02-20T11:33:44;12.00;64.00
72814;DHT22;60945;48.516;-2.768;2023-02-20T11:36:38;12.20;63.50
72814;DHT22;60945;48.516;-2.768;2023-02-20T11:39:18;12.20;63.30
72814;DHT22;60945;48.516;-2.768;2023-02-20T11:41:45;12.30;63.20
72814;DHT22;60945;48.516;-2.768;2023-02-20T11:46:39;12.30;63.40
72814;DHT22;60945;48.516;-2.768;2023-02-20T11:49:10;12.40;63.10
72814;DHT22;60945;48.516;-2.768;2023-02-20T11:51:45;12.50;63.00
72814;DHT22;60945;48.516;-2.768;2023-02-20T11:54:21;12.50;63.30
72814;DHT22;60945;48.516;-2.768;2023-02-20T11:57:26;12.50;62.70
72814;DHT22;60945;48.516;-2.768;2023-02-20T12:00:14;12.40;63.70
72814;DHT22;60945;48.516;-2.768;2023-02-20T12:08:02;12.00;64.80
72814;DHT22;60945;48.516;-2.768;2023-02-20T12:12:56;12.30;64.30
72814;DHT22;60945;48.516;-2.768;2023-02-20T12:15:24;12.10;64.30
72814;DHT22;60945;48.516;-2.768;2023-02-20T12:20:43;12.10;64.70
72814;DHT22;60945;48.516;-2.768;2023-02-20T12:23:33;11.90;64.70
72814;DHT22;60945;48.516;-2.768;2023-02-20T12:28:57;12.10;64.50
72814;DHT22;60945;48.516;-2.768;2023-02-20T12:31:49;12.30;64.50
72814;DHT22;60945;48.516;-2.768;2023-02-20T12:43:42;11.90;65.80
72814;DHT22;60945;48.516;-2.768;2023-02-20T12:46:22;12.20;64.90
72814;DHT22;60945;48.516;-2.768;2023-02-20T12:52:02;12.70;62.80
72814;DHT22;60945;48.516;-2.768;2023-02-20T13:00:45;12.70;63.50
72814;DHT22;60945;48.516;-2.768;2023-02-20T13:03:17;12.70;62.60
72814;DHT22;60945;48.516;-2.768;2023-02-20T13:05:46;12.60;63.60
72814;DHT22;60945;48.516;-2.768;2023-02-20T13:08:31;12.50;63.60
72814;DHT22;60945;48.516;-2.768;2023-02-20T13:11:00;12.50;64.00
72814;DHT22;60945;48.516;-2.768;2023-02-20T13:16:29;12.80;62.80
72814;DHT22;60945;48.516;-2.768;2023-02-20T13:19:24;12.20;64.30
72814;DHT22;60945;48.516;-2.768;2023-02-20T13:21:53;12.30;64.50
72814;DHT22;60945;48.516;-2.768;2023-02-20T13:26:55;12.20;64.90
72814;DHT22;60945;48.516;-2.768;2023-02-20T13:29:26;12.50;64.20
72814;DHT22;60945;48.516;-2.768;2023-02-20T13:31:57;11.90;66.00
72814;DHT22;60945;48.516;-2.768;2023-02-20T13:34:28;12.20;65.20
72814;DHT22;60945;48.516;-2.768;2023-02-20T13:36:54;11.90;66.00
72814;DHT22;60945;48.516;-2.768;2023-02-20T13:41:56;11.60;67.30
72814;DHT22;60945;48.516;-2.768;2023-02-20T13:52:38;11.20;68.70
72814;DHT22;60945;48.516;-2.768;2023-02-20T13:57:56;12.00;66.90
72814;DHT22;60945;48.516;-2.768;2023-02-20T14:00:43;12.40;65.90
72814;DHT22;60945;48.516;-2.768;2023-02-20T14:05:44;12.40;65.30
72814;DHT22;60945;48.516;-2.768;2023-02-20T14:08:17;12.00;66.40
72814;DHT22;60945;48.516;-2.768;2023-02-20T14:10:43;12.10;66.10
72814;DHT22;60945;48.516;-2.768;2023-02-20T14:13:20;12.20;66.40
72814;DHT22;60945;48.516;-2.768;2023-02-20T14:15:53;12.50;65.00
72814;DHT22;60945;48.516;-2.768;2023-02-20T14:18:24;12.60;64.90
72814;DHT22;60945;48.516;-2.768;2023-02-20T14:23:39;12.00;66.80
72814;DHT22;60945;48.516;-2.768;2023-02-20T14:28:51;11.80;67.70
72814;DHT22;60945;48.516;-2.768;2023-02-20T14:33:56;12.40;65.70
72814;DHT22;60945;48.516;-2.768;2023-02-20T14:36:46;12.30;66.20
72814;DHT22;60945;48.516;-2.768;2023-02-20T14:42:18;12.70;64.90
72814;DHT22;60945;48.516;-2.768;2023-02-20T14:44:49;12.70;64.50
72814;DHT22;60945;48.516;-2.768;2023-02-20T14:47:17;12.50;64.80
72814;DHT22;60945;48.516;-2.768;2023-02-20T14:49:43;12.30;66.00
72814;DHT22;60945;48.516;-2.768;2023-02-20T14:54:39;12.20;66.00
72814;DHT22;60945;48.516;-2.768;2023-02-20T14:57:07;11.30;68.60
72814;DHT22;60945;48.516;-2.768;2023-02-20T14:59:34;11.60;69.20
72814;DHT22;60945;48.516;-2.768;2023-02-20T15:07:14;12.60;65.60
72814;DHT22;60945;48.516;-2.768;2023-02-20T15:09:42;11.70;67.50
72814;DHT22;60945;48.516;-2.768;2023-02-20T15:15:06;11.50;68.60
72814;DHT22;60945;48.516;-2.768;2023-02-20T15:17:34;11.80;68.00
72814;DHT22;60945;48.516;-2.768;2023-02-20T15:22:40;12.00;66.70
72814;DHT22;60945;48.516;-2.768;2023-02-20T15:25:33;11.60;68.40
72814;DHT22;60945;48.516;-2.768;2023-02-20T15:30:34;12.30;66.70
72814;DHT22;60945;48.516;-2.768;2023-02-20T15:33:00;12.30;66.60
72814;DHT22;60945;48.516;-2.768;2023-02-20T15:35:28;12.20;66.60
72814;DHT22;60945;48.516;-2.768;2023-02-20T15:38:00;11.40;69.40
72814;DHT22;60945;48.516;-2.768;2023-02-20T15:40:31;11.30;70.70
72814;DHT22;60945;48.516;-2.768;2023-02-20T15:43:00;10.90;71.70
72814;DHT22;60945;48.516;-2.768;2023-02-20T15:45:27;11.20;71.60
72814;DHT22;60945;48.516;-2.768;2023-02-20T15:47:53;11.50;70.40
72814;DHT22;60945;48.516;-2.768;2023-02-20T15:50:19;11.50;70.60
72814;DHT22;60945;48.516;-2.768;2023-02-20T15:52:46;11.20;70.80
72814;DHT22;60945;48.516;-2.768;2023-02-20T15:55:17;11.10;72.10
72814;DHT22;60945;48.516;-2.768;2023-02-20T15:57:46;11.30;71.40
72814;DHT22;60945;48.516;-2.768;2023-02-20T16:00:21;11.10;72.10
72814;DHT22;60945;48.516;-2.768;2023-02-20T16:02:47;11.10;72.30
72814;DHT22;60945;48.516;-2.768;2023-02-20T16:05:13;11.70;70.50
72814;DHT22;60945;48.516;-2.768;2023-02-20T16:07:39;12.10;69.10
72814;DHT22;60945;48.516;-2.768;2023-02-20T16:10:05;12.20;68.50
72814;DHT22;60945;48.516;-2.768;2023-02-20T16:12:31;12.30;68.40
72814;DHT22;60945;48.516;-2.768;2023-02-20T16:15:02;12.50;67.60
72814;DHT22;60945;48.516;-2.768;2023-02-20T16:17:32;12.60;67.20
72814;DHT22;60945;48.516;-2.768;2023-02-20T16:19:59;12.60;67.00
72814;DHT22;60945;48.516;-2.768;2023-02-20T16:22:25;12.20;68.10
72814;DHT22;60945;48.516;-2.768;2023-02-20T16:24:50;12.10;68.70
72814;DHT22;60945;48.516;-2.768;2023-02-20T16:27:24;11.90;69.70
72814;DHT22;60945;48.516;-2.768;2023-02-20T16:29:52;12.10;69.20
72814;DHT22;60945;48.516;-2.768;2023-02-20T16:32:21;11.80;70.00
72814;DHT22;60945;48.516;-2.768;2023-02-20T16:34:48;11.70;70.40
72814;DHT22;60945;48.516;-2.768;2023-02-20T16:37:14;11.70;70.60
72814;DHT22;60945;48.516;-2.768;2023-02-20T16:39:41;11.80;70.00
72814;DHT22;60945;48.516;-2.768;2023-02-20T16:42:29;11.80;70.30
72814;DHT22;60945;48.516;-2.768;2023-02-20T16:44:58;11.90;69.80
72814;DHT22;60945;48.516;-2.768;2023-02-20T16:47:26;11.90;69.70
72814;DHT22;60945;48.516;-2.768;2023-02-20T16:49:52;12.00;69.30
72814;DHT22;60945;48.516;-2.768;2023-02-20T16:52:30;11.70;69.90
72814;DHT22;60945;48.516;-2.768;2023-02-20T16:54:57;11.70;70.40
72814;DHT22;60945;48.516;-2.768;2023-02-20T16:57:23;11.80;69.90
72814;DHT22;60945;48.516;-2.768;2023-02-20T16:59:51;11.40;71.20
72814;DHT22;60945;48.516;-2.768;2023-02-20T17:02:24;11.40;71.60
72814;DHT22;60945;48.516;-2.768;2023-02-20T17:04:53;11.40;71.70
72814;DHT22;60945;48.516;-2.768;2023-02-20T17:07:19;11.50;71.30
72814;DHT22;60945;48.516;-2.768;2023-02-20T17:09:46;11.50;71.40
72814;DHT22;60945;48.516;-2.768;2023-02-20T17:12:13;11.50;71.50
72814;DHT22;60945;48.516;-2.768;2023-02-20T17:14:40;11.30;72.30
72814;DHT22;60945;48.516;-2.768;2023-02-20T17:17:06;11.50;71.80
72814;DHT22;60945;48.516;-2.768;2023-02-20T17:19:35;10.90;73.30
72814;DHT22;60945;48.516;-2.768;2023-02-20T17:22:00;10.90;74.20
72814;DHT22;60945;48.516;-2.768;2023-02-20T17:24:26;10.90;74.30
72814;DHT22;60945;48.516;-2.768;2023-02-20T17:26:53;10.70;75.10
72814;DHT22;60945;48.516;-2.768;2023-02-20T17:29:18;10.40;76.70
72814;DHT22;60945;48.516;-2.768;2023-02-20T17:31:44;10.60;76.10
72814;DHT22;60945;48.516;-2.768;2023-02-20T17:34:10;10.90;74.80
72814;DHT22;60945;48.516;-2.768;2023-02-20T17:36:35;11.10;73.90
72814;DHT22;60945;48.516;-2.768;2023-02-20T17:39:01;11.10;73.70
72814;DHT22;60945;48.516;-2.768;2023-02-20T17:41:27;11.10;73.70
72814;DHT22;60945;48.516;-2.768;2023-02-20T17:43:52;11.00;74.00
72814;DHT22;60945;48.516;-2.768;2023-02-20T17:46:19;10.80;75.00
72814;DHT22;60945;48.516;-2.768;2023-02-20T17:48:47;11.00;74.60
72814;DHT22;60945;48.516;-2.768;2023-02-20T17:51:17;11.20;73.80
72814;DHT22;60945;48.516;-2.768;2023-02-20T17:53:44;11.10;74.00
72814;DHT22;60945;48.516;-2.768;2023-02-20T17:56:14;11.20;73.40
72814;DHT22;60945;48.516;-2.768;2023-02-20T17:58:41;11.40;73.00
72814;DHT22;60945;48.516;-2.768;2023-02-20T18:01:07;11.10;73.50
72814;DHT22;60945;48.516;-2.768;2023-02-20T18:03:33;11.10;73.50